Time;durP1;ratioP1;P1;durP2;ratioP2;P2;SDS_P1;SDS_P2;PMS_P1;PMS_P2;Temp;Humidity;BMP_temperature;BMP_pressure;BME280_temperature;BME280_humidity;BME280_pressure;Samples;Min_cycle;Max_cycle;Signal;HPM_P1;HPM_P2
2022/08/15 00:00:50;;;;;;;16.93;11.40;;;;;;;20.33;61.25;100056.28;4873717;23;20053;-92
2022/08/15 00:03:51;;;;;;;19.00;13.02;;;;;;;20.62;61.08;100102.22;4856297;29;20056;-90
2022/08/15 00:09:58;;;;;;;17.70;10.90;;;;;;;20.71;59.43;100100.06;4886134;29;20061;-91
2022/08/15 00:12:42;;;;;;;24.63;12.27;;;;;;;20.24;59.91;100031.50;4866061;29;20135;-88
2022/08/15 00:18:38;;;;;;;19.98;13.00;;;;;;;20.59;60.22;100087.09;4886483;29;20434;-90
2022/08/15 00:21:05;;;;;;;23.17;12.82;;;;;;;20.71;60.14;100100.06;4861187;29;20025;-91
2022/08/15 00:23:34;;;;;;;15.95;12.23;;;;;;;20.70;59.73;100101.25;4853535;29;20530;-90
2022/08/15 00:26:22;;;;;;;18.23;11.98;;;;;;;20.76;59.66;100115.63;4883892;29;20049;-92
2022/08/15 00:28:48;;;;;;;18.75;12.93;;;;;;;20.69;60.02;100105.16;4876340;29;20055;-90
2022/08/15 00:31:18;;;;;;;21.90;13.10;;;;;;;20.55;60.30;100080.66;4856305;29;20058;-91
2022/08/15 00:33:50;;;;;;;23.75;13.55;;;;;;;20.41;60.58;100069.19;4843698;29;20054;-90
2022/08/15 00:36:16;;;;;;;25.13;15.82;;;;;;;20.68;60.41;100111.91;4862804;29;20045;-90
2022/08/15 00:38:42;;;;;;;41.00;17.25;;;;;;;20.47;60.53;100087.19;4852449;29;20096;-90
2022/08/15 00:41:41;;;;;;;28.33;15.38;;;;;;;20.56;60.58;100114.78;4865534;29;20503;-90
2022/08/15 00:44:40;;;;;;;22.10;16.10;;;;;;;20.51;60.46;100106.75;4862746;29;20030;-91
2022/08/15 00:47:25;;;;;;;30.27;17.85;;;;;;;20.60;61.64;100115.69;4843851;29;20026;-91
2022/08/15 00:49:51;;;;;;;27.67;19.13;;;;;;;20.58;61.41;100118.00;4858766;29;20139;-91
2022/08/15 00:52:26;;;;;;;39.60;23.45;;;;;;;20.56;61.07;100120.34;4861565;29;20054;-91
2022/08/15 00:55:01;;;;;;;33.67;20.98;;;;;;;20.55;61.26;100113.97;4881445;29;20037;-90
2022/08/15 00:58:23;;;;;;;41.40;26.45;;;;;;;19.92;61.63;100034.28;4881551;29;20088;-91
2022/08/15 01:00:54;;;;;;;35.08;23.15;;;;;;;20.24;61.50;100087.03;4828425;29;20038;-90
2022/08/15 01:04:16;;;;;;;43.35;28.27;;;;;;;19.91;62.01;100046.56;4850413;29;20057;-90
2022/08/15 01:06:59;;;;;;;39.70;30.02;;;;;;;20.35;62.48;100128.94;4863093;29;20065;-92
2022/08/15 01:10:00;;;;;;;41.45;29.98;;;;;;;;;;4832899;29;20061;-88
2022/08/15 01:13:12;;;;;;;44.00;28.58;;;;;;;20.15;63.23;100108.59;4841247;29;20580;-91
2022/08/15 01:15:41;;;;;;;37.85;28.67;;;;;;;20.03;63.60;100097.59;4824674;29;20140;-91
2022/08/15 01:18:14;;;;;;;43.20;29.27;;;;;;;20.18;63.66;100135.66;4853684;29;20065;-91
2022/08/15 01:20:48;;;;;;;41.45;28.17;;;;;;;20.15;63.87;100134.41;4888385;23;20065;-91
2022/08/15 01:24:28;;;;;;;40.58;28.58;;;;;;;20.16;64.05;100136.03;4851954;29;20054;-90
2022/08/15 01:30:26;;;;;;;37.67;24.40;;;;;;;19.88;64.17;100101.97;4805797;29;20062;-90
2022/08/15 01:40:16;;;;;;;54.85;30.55;;;;;;;20.00;65.02;100145.47;4877062;29;20028;-90
2022/08/15 01:43:22;;;;;;;48.70;33.63;;;;;;;19.92;65.06;100130.63;4788594;29;20078;-90
2022/08/15 01:53:37;;;;;;;50.05;35.88;;;;;;;19.79;65.99;100149.28;4900850;23;20049;-89
2022/08/15 01:56:08;;;;;;;54.03;38.03;;;;;;;19.64;66.30;100125.13;4864771;29;20055;-89
2022/08/15 01:58:39;;;;;;;50.85;39.55;;;;;;;19.70;66.53;100141.16;4863859;29;20045;-89
2022/08/15 02:01:55;;;;;;;53.00;38.65;;;;;;;19.76;66.48;100150.00;4858003;29;20141;-91
2022/08/15 02:04:45;;;;;;;60.45;36.03;;;;;;;19.74;66.51;100155.13;4804203;29;20067;-91
2022/08/15 02:07:34;;;;;;;51.35;35.90;;;;;;;19.75;66.40;100150.38;4788965;29;20062;-90
2022/08/15 02:10:06;;;;;;;49.75;33.33;;;;;;;19.78;66.80;100155.22;4831822;29;20038;-92
2022/08/15 02:13:05;;;;;;;49.63;37.08;;;;;;;19.55;66.64;100133.56;4842035;29;20058;-91
2022/08/15 02:15:54;;;;;;;59.58;41.33;;;;;;;19.49;67.10;100134.97;4826767;29;20038;-89
2022/08/15 02:19:49;;;;;;;53.58;37.00;;;;;;;19.66;67.20;100161.59;4826004;29;20061;-89
2022/08/15 02:22:23;;;;;;;49.42;34.38;;;;;;;19.51;67.34;100148.50;4814468;29;20061;-89
2022/08/15 02:25:46;;;;;;;45.33;34.47;;;;;;;19.61;67.46;100162.66;4808151;29;20066;-90
2022/08/15 02:28:25;;;;;;;46.75;33.75;;;;;;;19.40;67.62;100128.75;4749778;30;20527;-91
2022/08/15 02:31:36;;;;;;;42.92;32.25;;;;;;;19.50;67.95;100150.44;4767827;30;20078;-91
2022/08/15 02:35:22;;;;;;;51.33;29.27;;;;;;;19.35;68.02;100120.69;4756841;30;20055;-90
2022/08/15 02:42:24;;;;;;;38.70;28.13;;;;;;;19.15;68.26;100098.34;4783396;30;20035;-90
2022/08/15 02:45:17;;;;;;;50.00;32.67;;;;;;;19.64;68.23;100173.06;4783536;30;20146;-90
2022/08/15 02:48:35;;;;;;;47.03;33.22;;;;;;;19.33;68.26;100140.44;4790877;30;20572;-89
2022/08/15 02:51:28;;;;;;;56.15;35.72;;;;;;;19.16;68.69;100122.13;4766799;30;20054;-90
2022/08/15 02:55:02;;;;;;;51.20;35.95;;;;;;;19.54;69.13;100181.06;4764902;30;20104;-89
2022/08/15 02:57:36;;;;;;;56.38;38.97;;;;;;;19.12;69.02;100132.31;4785693;29;20086;-88
2022/08/15 03:00:15;;;;;;;45.70;31.05;;;;;;;19.55;68.89;100179.91;4753591;30;20042;-89
2022/08/15 03:02:57;;;;;;;46.88;29.80;;;;;;;19.52;68.67;100162.00;4827480;29;20083;-91
2022/08/15 03:05:39;;;;;;;44.03;28.65;;;;;;;19.60;68.62;100172.13;4861632;29;20053;-91
2022/08/15 03:08:18;;;;;;;36.90;28.08;;;;;;;19.39;68.49;100129.91;4843289;29;20118;-90
2022/08/15 03:10:56;;;;;;;42.78;26.25;;;;;;;19.56;68.34;100151.00;4843780;29;20056;-90
2022/08/15 03:14:29;;;;;;;36.35;26.63;;;;;;;19.76;68.40;100186.06;4805385;29;20051;-91
2022/08/15 03:20:03;;;;;;;50.35;27.35;;;;;;;19.78;68.35;100194.06;4888031;29;20053;-90
2022/08/15 03:23:27;;;;;;;49.20;31.00;;;;;;;19.22;68.61;100108.84;4887195;29;20085;-91
2022/08/15 03:25:59;;;;;;;48.60;32.90;;;;;;;19.83;68.59;100189.03;4877588;29;20057;-90
2022/08/15 03:28:37;;;;;;;47.58;33.53;;;;;;;19.71;68.49;100169.69;4906947;29;20049;-91
2022/08/15 03:31:56;;;;;;;52.78;31.40;;;;;;;19.71;69.10;100164.94;4879530;29;20579;-89
2022/08/15 03:34:29;;;;;;;54.20;32.92;;;;;;;19.87;68.87;100189.97;4865308;29;20030;-91
2022/08/15 03:37:23;;;;;;;50.85;36.33;;;;;;;19.58;68.45;100143.13;4876326;29;20037;-91
2022/08/15 03:40:23;;;;;;;50.85;35.63;;;;;;;20.02;69.06;100201.44;4878578;29;20135;-92
2022/08/15 03:43:18;;;;;;;52.55;36.55;;;;;;;20.04;69.00;100193.59;4874603;29;20053;-91
2022/08/15 03:46:42;;;;;;;58.95;37.15;;;;;;;19.74;69.06;100152.34;4860444;29;20048;-88
2022/08/15 03:49:47;;;;;;;60.20;38.72;;;;;;;19.83;69.55;100163.25;4878629;29;20580;-90
2022/08/15 03:52:24;;;;;;;48.45;35.45;;;;;;;19.81;69.17;100168.38;4865677;29;20044;-89
2022/08/15 03:54:53;;;;;;;65.35;37.85;;;;;;;20.06;69.49;100214.25;4876460;29;20053;-90
2022/08/15 03:58:06;;;;;;;53.22;37.28;;;;;;;19.84;69.55;100170.44;4824279;29;20210;-92
2022/08/15 04:04:29;;;;;;;60.97;36.55;;;;;;;20.09;69.69;100201.63;4805617;29;20064;-90
2022/08/15 04:07:20;;;;;;;42.53;32.33;;;;;;;19.82;69.48;100143.03;4836941;29;20086;-90
2022/08/15 04:10:51;;;;;;;46.45;32.60;;;;;;;20.28;69.84;100200.97;4820441;29;20034;-89
2022/08/15 04:13:50;;;;;;;48.05;31.48;;;;;;;19.92;69.31;100136.97;4816904;29;20058;-90
2022/08/15 04:16:27;;;;;;;52.28;32.63;;;;;;;20.23;69.38;100173.44;4792281;29;20030;-91
2022/08/15 04:19:00;;;;;;;47.70;31.13;;;;;;;20.27;69.10;100168.81;4813934;29;20037;-92
2022/08/15 04:22:49;;;;;;;53.92;32.03;;;;;;;20.54;69.34;100203.25;4815475;29;20076;-91
2022/08/15 04:26:08;;;;;;;41.67;30.42;;;;;;;20.62;69.08;100202.25;4800010;29;20063;-91
2022/08/15 04:28:43;;;;;;;46.45;30.55;;;;;;;20.09;69.03;100101.72;4801898;29;20030;-91
2022/08/15 04:32:35;;;;;;;40.45;30.80;;;;;;;20.74;69.47;100199.38;4838739;29;20095;-91
2022/08/15 04:35:17;;;;;;;45.50;29.50;;;;;;;20.40;69.21;100135.03;4824503;29;20042;-90
2022/08/15 04:38:20;;;;;;;43.22;30.85;;;;;;;20.81;69.00;100199.53;4848650;29;20108;-91
2022/08/15 04:40:59;;;;;;;57.65;29.30;;;;;;;20.46;68.96;100129.19;4900906;23;20069;-90
2022/08/15 04:43:32;;;;;;;57.47;29.95;;;;;;;20.79;68.59;100176.06;4860823;29;20494;-90
2022/08/15 04:46:02;;;;;;;57.85;29.50;;;;;;;20.65;68.98;100126.50;4884941;29;20086;-89
2022/08/15 04:48:34;;;;;;;49.70;28.48;;;;;;;20.79;68.62;100151.84;4883579;29;20048;-90
2022/08/15 04:51:16;;;;;;;50.78;28.00;;;;;;;20.72;67.99;100121.13;4881782;29;20041;-91
2022/08/15 04:54:07;;;;;;;43.03;26.70;;;;;;;21.35;67.31;100187.69;4866035;29;20067;-89
2022/08/15 04:56:34;;;;;;;48.30;26.40;;;;;;;21.11;66.62;100140.66;4895318;29;20046;-90
2022/08/15 04:59:11;;;;;;;43.17;27.45;;;;;;;21.42;66.48;100175.09;4871529;29;20140;-93
2022/08/15 05:01:42;;;;;;;37.78;25.38;;;;;;;21.47;65.19;100175.63;4861008;29;20063;-95
2022/08/15 05:04:12;;;;;;;46.17;26.70;;;;;;;21.48;65.15;100168.09;4840881;29;20054;-92
2022/08/15 05:06:55;;;;;;;44.33;26.20;;;;;;;21.33;64.22;100133.59;4855806;29;20056;-95
2022/08/15 05:09:22;;;;;;;63.28;26.85;;;;;;;21.74;64.30;100196.06;4866707;29;20083;-92
2022/08/15 05:11:49;;;;;;;57.28;26.40;;;;;;;21.76;64.46;100188.16;4864300;29;20071;-93
2022/08/15 05:14:15;;;;;;;49.75;25.10;;;;;;;21.70;62.89;100170.13;4865829;29;20045;-94
2022/08/15 05:16:42;;;;;;;36.65;24.20;;;;;;;21.75;63.04;100167.03;4880741;29;20051;-94
2022/08/15 05:19:09;;;;;;;38.28;22.25;;;;;;;21.92;62.47;100187.25;4867278;29;20055;-92
2022/08/15 05:21:38;;;;;;;32.38;21.35;;;;;;;21.99;62.25;100190.97;4859915;29;20032;-96
2022/08/15 05:24:14;;;;;;;35.15;22.23;;;;;;;22.05;62.63;100192.28;4860565;29;20112;-96
2022/08/15 05:26:47;;;;;;;34.45;20.92;;;;;;;22.14;61.79;100197.59;4854686;29;20409;-91
2022/08/15 05:29:15;;;;;;;37.08;20.30;;;;;;;22.20;60.95;100198.94;4885567;29;21902;-90
2022/08/15 05:31:42;;;;;;;;;;;;;;;22.26;60.98;100189.13;4856180;29;20037;-91
2022/08/15 05:34:11;;;;;;;51.72;19.15;;;;;;;22.33;60.43;100188.44;4878987;29;20055;-92
2022/08/15 05:36:53;;;;;;;32.90;20.42;;;;;;;22.40;60.44;100190.53;4850437;29;20101;-95
2022/08/15 05:44:19;;;;;;;41.25;23.95;;;;;;;22.55;59.96;100181.25;4878581;29;20122;-95
2022/08/15 05:47:09;;;;;;;35.75;23.75;;;;;;;22.51;60.09;100161.66;4870942;29;20048;-94
2022/08/15 05:49:50;;;;;;;42.80;22.40;;;;;;;22.70;60.24;100185.06;4877513;29;20530;-90
2022/08/15 05:52:34;;;;;;;72.90;22.45;;;;;;;22.80;60.70;100184.44;4863386;29;20068;-93
2022/08/15 05:55:30;;;;;;;39.70;19.05;;;;;;;22.89;60.69;100182.19;4854507;29;20065;-93
2022/08/15 05:58:09;;;;;;;44.05;20.52;;;;;;;22.99;60.02;100186.34;4839869;29;20127;-92
2022/08/15 06:00:47;;;;;;;41.20;19.77;;;;;;;23.08;60.30;100181.31;4850553;29;20038;-86
2022/08/15 06:03:24;;;;;;;39.50;21.70;;;;;;;23.17;61.02;100178.22;4861806;29;20049;-85
2022/08/15 06:06:19;;;;;;;42.67;21.02;;;;;;;23.20;60.20;100167.13;4875915;29;20534;-94
2022/08/15 06:08:50;;;;;;;37.60;20.42;;;;;;;23.34;59.35;100182.44;4838850;24;20568;-89
2022/08/15 06:11:43;;;;;;;47.08;23.05;;;;;;;23.42;60.74;100181.38;4853509;29;20046;-92
2022/08/15 06:14:50;;;;;;;46.53;22.17;;;;;;;23.47;59.82;100177.44;4816062;29;20078;-87
2022/08/15 06:17:42;;;;;;;34.63;19.38;;;;;;;23.45;60.09;100158.28;4739358;30;20050;-88
2022/08/15 06:20:13;;;;;;;34.75;18.85;;;;;;;23.59;59.30;100166.81;4833802;23;20065;-94
2022/08/15 06:22:57;;;;;;;37.22;19.42;;;;;;;23.57;59.21;100157.22;4865817;29;20128;-87
2022/08/15 06:25:48;;;;;;;59.08;20.73;;;;;;;23.62;59.01;100163.28;4854343;29;20045;-88
2022/08/15 06:28:44;;;;;;;40.38;18.55;;;;;;;23.80;58.66;100182.25;4834237;29;20582;-92
2022/08/15 06:31:31;;;;;;;30.13;17.73;;;;;;;23.87;57.87;100187.91;4846855;29;20052;-87
2022/08/15 06:34:39;;;;;;;36.15;18.23;;;;;;;23.92;58.50;100185.59;4872471;29;20511;-92
2022/08/15 06:37:22;;;;;;;29.70;15.77;;;;;;;24.02;58.05;100188.88;4874457;23;20055;-88
2022/08/15 06:40:20;;;;;;;28.17;16.90;;;;;;;24.00;56.91;100169.69;4838426;29;20057;-89
2022/08/15 06:43:02;;;;;;;23.15;15.23;;;;;;;23.88;56.43;100140.06;4849273;29;20041;-86
2022/08/15 06:45:54;;;;;;;33.70;14.15;;;;;;;24.23;55.72;100188.28;4845447;29;20488;-86
2022/08/15 06:48:24;;;;;;;33.13;14.80;;;;;;;24.29;55.27;100192.34;4863915;29;20053;-85
2022/08/15 06:51:00;;;;;;;33.92;16.25;;;;;;;24.31;55.66;100199.16;4864910;29;20072;-86
2022/08/15 06:53:53;;;;;;;24.08;15.23;;;;;;;24.37;55.63;100200.41;4846704;29;20044;-88
2022/08/15 06:56:41;;;;;;;44.63;16.38;;;;;;;24.42;56.32;100201.28;4833230;29;20045;-87
2022/08/15 06:59:34;;;;;;;99.20;19.65;;;;;;;24.25;55.96;100164.38;4846937;29;20055;-94
2022/08/15 07:02:12;;;;;;;29.88;13.68;;;;;;;24.44;52.56;100173.75;4841586;29;20152;-91
2022/08/15 07:05:20;;;;;;;50.90;11.57;;;;;;;24.69;52.60;100199.09;4840415;29;20117;-91
2022/08/15 07:08:38;;;;;;;54.20;11.02;;;;;;;24.77;52.31;100201.59;4830445;29;20515;-92
2022/08/15 07:11:37;;;;;;;33.47;9.48;;;;;;;24.57;47.76;100150.72;4842672;24;20054;-91
2022/08/15 07:14:54;;;;;;;36.17;7.47;;;;;;;24.85;46.51;100199.63;4845078;29;20061;-94
2022/08/15 07:17:51;;;;;;;45.75;9.07;;;;;;;24.65;45.76;100165.53;4845512;29;20046;-90
2022/08/15 07:22:54;;;;;;;15.53;5.83;;;;;;;24.90;45.50;100185.31;4877700;29;20140;-93
2022/08/15 07:25:28;;;;;;;20.02;5.72;;;;;;;25.01;45.35;100205.75;4829037;29;20128;-93
2022/08/15 07:28:01;;;;;;;15.05;5.47;;;;;;;25.03;45.38;100203.38;4858167;29;20129;-90
2022/08/15 07:30:54;;;;;;;19.77;5.55;;;;;;;25.03;44.16;100217.34;4842861;29;20062;-89
2022/08/15 07:33:56;;;;;;;29.63;6.00;;;;;;;24.42;44.83;100120.22;4840322;29;20042;-93
2022/08/15 07:37:24;;;;;;;56.88;9.02;;;;;;;24.97;45.23;100207.72;4824488;29;20144;-93
2022/08/15 07:40:37;;;;;;;34.83;7.97;;;;;;;25.00;47.36;100206.13;4847134;29;20048;-95
2022/08/15 07:46:40;;;;;;;38.65;8.15;;;;;;;24.90;45.07;100167.69;4779212;29;20039;-88
2022/08/15 07:49:52;;;;;;;37.35;7.20;;;;;;;25.04;44.54;100179.78;4810731;29;20138;-92
2022/08/15 07:52:25;;;;;;;21.33;7.15;;;;;;;25.24;43.25;100199.94;4749047;30;20107;-92
2022/08/15 07:55:13;;;;;;;50.35;7.00;;;;;;;25.22;44.80;100195.91;4775221;30;20043;-90
2022/08/15 07:58:29;;;;;;;33.95;6.65;;;;;;;25.17;43.32;100201.88;4783593;29;20082;-93
2022/08/15 08:02:30;;;;;;;23.63;6.32;;;;;;;25.24;43.85;100204.72;4740509;30;20063;-94
2022/08/15 08:05:25;;;;;;;25.02;5.85;;;;;;;25.38;43.75;100204.78;4762305;30;20059;-94
2022/08/15 08:08:07;;;;;;;27.90;6.05;;;;;;;25.10;43.14;100155.06;4756212;30;20060;-93
2022/08/15 08:11:17;;;;;;;27.80;6.85;;;;;;;25.44;44.56;100180.84;4763770;30;20636;-91
2022/08/15 08:14:18;;;;;;;16.08;6.03;;;;;;;25.50;43.71;100173.66;4744179;30;20069;-91
2022/08/15 08:17:38;;;;;;;41.58;6.70;;;;;;;25.35;43.38;100127.19;4763356;30;20089;-93
2022/08/15 08:20:15;;;;;;;59.15;8.20;;;;;;;25.74;42.15;100185.34;4833894;23;20053;-91
2022/08/15 08:23:20;;;;;;;36.95;6.65;;;;;;;25.92;42.43;100196.63;4848974;29;20045;-92
2022/08/15 08:26:21;;;;;;;38.78;7.63;;;;;;;25.95;41.41;100191.03;4846142;29;20061;-93
2022/08/15 08:28:49;;;;;;;22.55;5.82;;;;;;;26.04;41.36;100198.28;4850048;29;20112;-90
2022/08/15 08:32:00;;;;;;;36.53;6.68;;;;;;;26.19;41.76;100191.47;4836832;29;20042;-91
2022/08/15 08:35:17;;;;;;;14.32;5.07;;;;;;;26.38;41.03;100193.13;4842255;29;20196;-89
2022/08/15 08:38:49;;;;;;;19.20;5.45;;;;;;;26.45;40.36;100193.91;4830734;29;20070;-87
2022/08/15 08:41:51;;;;;;;32.88;6.47;;;;;;;26.51;39.23;100182.34;4853390;29;20050;-88
2022/08/15 08:44:31;;;;;;;37.33;6.90;;;;;;;26.39;39.48;100177.91;4855853;29;20101;-90
2022/08/15 08:47:28;;;;;;;25.70;6.72;;;;;;;26.00;38.67;100140.22;4835831;29;20042;-91
2022/08/15 08:50:55;;;;;;;27.58;5.10;;;;;;;26.26;39.33;100163.50;4874909;29;20114;-89
2022/08/15 08:54:22;;;;;;;28.08;4.97;;;;;;;26.51;39.72;100176.75;4853707;29;20054;-90
2022/08/15 08:56:54;;;;;;;19.98;5.32;;;;;;;26.41;38.79;100164.28;4876696;29;20045;-89
2022/08/15 08:59:59;;;;;;;62.38;6.85;;;;;;;26.19;37.52;100127.03;4846817;29;20057;-87
2022/08/15 09:03:09;;;;;;;38.80;5.32;;;;;;;26.53;37.49;100177.94;4877427;29;20448;-88
2022/08/15 09:06:00;;;;;;;98.38;7.60;;;;;;;26.59;39.60;100181.13;4873557;29;20112;-89
2022/08/15 09:08:35;;;;;;;23.92;5.15;;;;;;;26.64;38.76;100178.72;4850444;29;20045;-90
2022/08/15 09:11:29;;;;;;;29.70;6.13;;;;;;;26.66;38.60;100170.72;4851065;29;20075;-88
2022/08/15 09:14:17;;;;;;;22.58;5.05;;;;;;;26.33;39.41;100129.84;4826701;29;20054;-92
2022/08/15 09:16:52;;;;;;;30.30;5.68;;;;;;;26.65;39.78;100159.91;4854906;29;20515;-90
2022/08/15 09:23:46;;;;;;;24.50;4.78;;;;;;;26.75;38.17;100150.66;4874447;29;20041;-89
2022/08/15 09:26:55;;;;;;;38.45;6.93;;;;;;;27.09;39.60;100170.66;4892649;29;20538;-89
2022/08/15 09:29:43;;;;;;;19.60;4.82;;;;;;;26.77;37.48;100088.56;4811988;29;20034;-87
2022/08/15 09:32:46;;;;;;;21.67;4.90;;;;;;;27.15;38.56;100132.59;4797861;30;20146;-86
2022/08/15 09:39:08;;;;;;;19.63;5.03;;;;;;;27.68;36.94;100153.19;4806021;29;20094;-90
2022/08/15 09:42:08;;;;;;;26.83;6.28;;;;;;;27.69;37.71;100154.81;4791630;29;20061;-90
2022/08/15 09:44:49;;;;;;;20.65;7.57;;;;;;;27.51;36.51;100131.63;4789595;29;20129;-90
2022/08/15 09:47:49;;;;;;;15.43;5.15;;;;;;;27.76;37.47;100157.63;4793841;29;20529;-95
2022/08/15 09:50:28;;;;;;;25.38;5.50;;;;;;;27.75;37.60;100139.16;4822919;29;20057;-93
2022/08/15 09:53:20;;;;;;;25.30;7.20;;;;;;;28.09;37.25;100150.59;4781161;29;20055;-93
2022/08/15 09:56:09;;;;;;;38.92;7.57;;;;;;;27.84;36.02;100094.53;4783495;29;20621;-91
2022/08/15 09:59:26;;;;;;;34.75;7.05;;;;;;;28.42;34.23;100161.63;4813520;29;20054;-93
2022/08/15 10:02:33;;;;;;;;;;;;;;;28.59;35.50;100159.88;4806381;29;20050;-93
2022/08/15 10:08:53;;;;;;;18.50;6.73;;;;;;;28.87;34.20;100156.00;4876563;29;20088;-92
2022/08/15 10:11:40;;;;;;;17.85;6.05;;;;;;;28.88;34.47;100154.78;4831274;29;20291;-92
2022/08/15 10:14:22;;;;;;;38.42;6.43;;;;;;;29.02;36.53;100149.81;4824265;29;20046;-94
2022/08/15 10:16:52;;;;;;;18.77;7.13;;;;;;;28.84;35.27;100111.78;4842070;29;20137;-91
2022/08/15 10:19:30;;;;;;;27.15;9.95;;;;;;;29.20;35.94;100146.81;4829383;29;20603;-93
2022/08/15 10:22:03;;;;;;;28.95;9.27;;;;;;;29.37;37.11;100147.00;4843208;29;20054;-93
2022/08/15 10:24:53;;;;;;;82.93;10.95;;;;;;;29.45;36.22;100142.91;4812356;29;20049;-89
2022/08/15 10:27:59;;;;;;;40.35;10.48;;;;;;;29.23;34.65;100100.09;4810632;29;20050;-89
2022/08/15 10:31:31;;;;;;;34.63;10.50;;;;;;;29.54;34.06;100146.00;4817548;29;20061;-89
2022/08/15 10:34:46;;;;;;;41.63;11.25;;;;;;;29.52;34.66;100151.25;4837026;29;20050;-90
2022/08/15 10:38:28;;;;;;;34.43;12.70;;;;;;;29.52;34.05;100145.63;4815885;29;20038;-89
2022/08/15 10:41:50;;;;;;;20.52;10.63;;;;;;;29.49;35.64;100140.81;4833704;29;20579;-89
2022/08/15 10:44:58;;;;;;;93.10;19.13;;;;;;;29.43;33.69;100139.69;4814938;29;20535;-94
2022/08/15 10:47:47;;;;;;;60.85;21.35;;;;;;;29.48;33.28;100137.22;4852400;29;20045;-94
2022/08/15 10:50:41;;;;;;;36.75;17.45;;;;;;;29.47;33.87;100144.06;4849464;29;20041;-94
2022/08/15 10:53:27;;;;;;;35.08;14.25;;;;;;;29.38;32.50;100134.53;4841349;29;20017;-90
2022/08/15 10:56:22;;;;;;;28.23;12.07;;;;;;;29.03;34.17;100097.13;4844992;29;20051;-90
2022/08/15 10:59:23;;;;;;;38.05;16.60;;;;;;;28.73;34.43;100067.69;4880828;29;20105;-90
2022/08/15 11:01:51;;;;;;;;;;;;;;;29.34;33.49;100151.50;4883492;29;20033;-90
2022/08/15 11:04:34;;;;;;;50.30;22.60;;;;;;;29.34;32.79;100148.66;4847631;29;19923;-88
2022/08/15 11:07:03;;;;;;;41.38;21.55;;;;;;;29.17;32.71;100102.63;4830484;29;20113;-90
2022/08/15 11:09:29;;;;;;;51.13;22.55;;;;;;;29.14;34.86;100097.81;4854193;29;20049;-90
2022/08/15 11:12:05;;;;;;;41.20;27.13;;;;;;;29.50;33.39;100136.78;4843802;29;20077;-91
2022/08/15 11:14:52;;;;;;;43.50;25.55;;;;;;;29.30;33.91;100088.75;4840280;29;20419;-91
2022/08/15 11:17:37;;;;;;;48.50;28.65;;;;;;;29.66;33.83;100134.19;4838848;29;20052;-93
2022/08/15 11:33:54;;;;;;;31.33;13.57;;;;;;;29.54;33.88;100067.13;4855735;29;20037;-92
2022/08/15 11:36:36;;;;;;;22.75;13.20;;;;;;;29.72;34.14;100076.13;4833639;29;20052;-93
2022/08/15 11:40:07;;;;;;;30.73;15.32;;;;;;;30.07;32.92;100118.31;4835083;29;20057;-91
2022/08/15 11:43:01;;;;;;;38.00;14.50;;;;;;;30.11;33.17;100127.50;4820327;29;20045;-90
2022/08/15 11:45:35;;;;;;;23.67;13.50;;;;;;;29.91;33.37;100088.72;4866139;29;20045;-92
2022/08/15 11:48:01;;;;;;;66.95;19.80;;;;;;;30.07;33.66;100116.28;4866442;23;20514;-87
2022/08/15 11:50:40;;;;;;;43.38;15.85;;;;;;;30.09;33.30;100111.00;4846578;29;20100;-91
2022/08/15 11:53:31;;;;;;;41.20;14.13;;;;;;;30.19;32.87;100114.91;4877445;23;20065;-94
2022/08/15 11:56:20;;;;;;;29.98;13.80;;;;;;;29.92;33.82;100064.94;4879805;29;20045;-94
2022/08/15 11:58:47;;;;;;;29.73;13.90;;;;;;;30.02;33.96;100071.63;4849104;29;20042;-91
2022/08/15 12:04:42;;;;;;;18.67;11.90;;;;;;;30.33;32.38;100085.66;4856845;29;20065;-93
2022/08/15 12:10:50;;;;;;;23.25;11.18;;;;;;;30.28;31.31;100067.19;4808397;29;20043;-92
2022/08/15 12:18:03;;;;;;;43.92;11.93;;;;;;;30.65;31.37;100105.63;4869269;29;20051;-94
2022/08/15 12:20:59;;;;;;;22.55;11.05;;;;;;;30.56;31.28;100111.06;4835686;29;20419;-93
2022/08/15 12:26:38;;;;;;;15.50;8.65;;;;;;;30.25;31.47;100033.41;4847619;29;20057;-95
2022/08/15 12:29:26;;;;;;;19.42;9.18;;;;;;;30.64;32.09;100089.13;4839908;29;20074;-95
2022/08/15 12:31:58;;;;;;;18.15;9.98;;;;;;;30.15;32.54;100002.13;4809226;29;20050;-95
2022/08/15 12:35:03;;;;;;;26.48;10.00;;;;;;;30.38;32.74;100040.03;4824745;29;20076;-94
2022/08/15 12:37:40;;;;;;;15.48;8.48;;;;;;;30.62;32.07;100064.16;4813471;29;20058;-94
2022/08/15 12:45:18;;;;;;;20.55;8.75;;;;;;;30.78;33.00;100080.41;4812832;29;20057;-93
2022/08/15 12:51:11;;;;;;;22.60;10.10;;;;;;;30.58;33.04;100031.59;4891554;23;20122;-95
2022/08/15 12:53:42;;;;;;;25.98;11.77;;;;;;;30.72;33.29;100056.72;4872807;29;20041;-94
2022/08/15 12:56:24;;;;;;;23.73;9.20;;;;;;;30.63;31.61;100029.09;4861849;29;20057;-91
2022/08/15 12:59:28;;;;;;;;;;;;;;;;;;;;;
2022/08/15 13:02:40;;;;;;;15.07;8.27;;;;;;;30.86;32.51;100042.38;4870551;29;20125;-94
2022/08/15 13:06:01;;;;;;;22.02;9.75;;;;;;;31.12;33.64;100073.69;4870699;29;20053;-93
2022/08/15 13:08:27;;;;;;;32.13;8.60;;;;;;;30.61;31.67;100016.63;4853404;29;20042;-93
2022/08/15 13:11:31;;;;;;;;;;;;;;;30.64;32.03;100072.19;4830762;29;20049;-94
2022/08/15 13:15:04;;;;;;;9.80;7.28;;;;;;;30.10;34.23;100070.31;4874760;29;19980;-94
2022/08/15 13:17:59;;;;;;;19.20;8.40;;;;;;;30.15;35.21;100078.25;4849069;29;20038;-91
2022/08/15 13:27:42;;;;;;;19.30;7.97;;;;;;;29.44;35.25;100028.63;4805886;29;20057;-92
2022/08/15 13:30:12;;;;;;;31.05;12.82;;;;;;;29.15;36.03;100014.16;4771649;30;20058;-90
2022/08/15 13:33:47;;;;;;;27.98;11.95;;;;;;;29.68;35.09;100049.22;4771933;30;20081;-93
2022/08/15 13:36:22;;;;;;;25.77;9.18;;;;;;;29.49;35.19;99994.31;4787808;29;20217;-92
2022/08/15 13:39:16;;;;;;;21.95;8.80;;;;;;;29.46;36.63;100035.41;4758996;30;20538;-92
2022/08/15 13:45:38;;;;;;;27.73;8.63;;;;;;;29.68;35.88;100044.38;4808639;23;20435;-93
2022/08/15 13:49:04;;;;;;;41.72;9.80;;;;;;;29.56;35.03;100044.13;4855442;29;20045;-92
2022/08/15 13:51:56;;;;;;;52.88;9.10;;;;;;;29.38;35.04;99993.69;4856031;29;20064;-90
2022/08/15 13:58:05;;;;;;;62.00;10.30;;;;;;;29.46;34.64;99989.53;4838357;29;20083;-93
2022/08/15 14:00:57;;;;;;;;;;;;;;;29.88;35.74;100050.13;4815185;29;20831;-92
2022/08/15 14:03:24;;;;;;;27.27;7.15;;;;;;;29.62;35.98;99991.75;4818694;29;20407;-93
2022/08/15 14:05:57;;;;;;;57.65;9.05;;;;;;;29.49;36.13;99952.88;4809140;29;20058;-91
2022/08/15 14:08:27;;;;;;;32.42;7.70;;;;;;;29.59;36.68;99970.81;4792833;29;20506;-93
2022/08/15 14:11:27;;;;;;;66.85;9.18;;;;;;;30.07;36.44;100048.59;4788445;29;20055;-92
2022/08/15 14:13:53;;;;;;;32.35;7.68;;;;;;;29.79;35.88;100012.41;4796217;29;20074;-89
2022/08/15 14:20:55;;;;;;;37.95;7.82;;;;;;;30.07;35.63;100048.59;4811168;29;19926;-96
2022/08/15 14:23:24;;;;;;;38.70;9.20;;;;;;;29.69;35.70;99991.63;4794320;29;20106;-92
2022/08/15 14:25:58;;;;;;;43.50;9.95;;;;;;;29.86;35.08;100020.75;4787935;29;20056;-91
2022/08/15 14:28:25;;;;;;;29.95;8.07;;;;;;;30.04;36.16;100055.09;4774720;30;20063;-93
2022/08/15 14:30:53;;;;;;;32.63;7.03;;;;;;;29.78;36.15;100014.44;4801944;29;20147;-95
2022/08/15 14:38:04;;;;;;;29.95;7.15;;;;;;;30.14;35.78;100042.03;5005740;23;20068;-92
2022/08/15 14:51:42;;;;;;;42.35;7.68;;;;;;;30.11;37.38;100037.25;5100131;23;20028;-94
2022/08/15 14:57:59;;;;;;;31.77;7.82;;;;;;;30.08;35.90;100040.94;4844843;29;20600;-93
2022/08/15 15:00:27;;;;;;;18.77;6.88;;;;;;;29.76;37.25;99985.09;4817227;29;20042;-92
2022/08/15 15:05:40;;;;;;;38.35;8.70;;;;;;;29.83;37.91;99985.75;4892650;29;20056;-93
2022/08/15 15:08:57;;;;;;;32.88;7.68;;;;;;;30.14;36.77;100028.75;4838188;23;20046;-93
2022/08/15 15:16:33;;;;;;;22.60;6.97;;;;;;;30.02;36.96;100025.72;4886789;24;20152;-94